createdAt,value
2023-08-25T00:04:27.206Z,20.60
2023-08-25T00:06:54.142Z,20.70
2023-08-25T00:09:21.132Z,20.60
2023-08-25T00:11:48.720Z,20.60
2023-08-25T00:14:16.084Z,20.50
2023-08-25T00:16:43.385Z,20.50
2023-08-25T00:19:10.429Z,20.40
2023-08-25T00:21:37.400Z,20.30
2023-08-25T00:24:04.443Z,20.30
2023-08-25T00:26:33.449Z,20.20
2023-08-25T00:29:00.375Z,20.20
2023-08-25T00:31:27.349Z,20.20
2023-08-25T00:33:54.396Z,20.20
2023-08-25T00:36:21.349Z,20.20
2023-08-25T00:38:48.288Z,20.10
2023-08-25T00:41:15.170Z,20.10
2023-08-25T00:43:42.169Z,20.10
2023-08-25T00:46:09.964Z,20.10
2023-08-25T00:48:37.907Z,20.00
2023-08-25T00:51:06.462Z,20.00
2023-08-25T00:53:37.076Z,20.00
2023-08-25T00:56:04.755Z,19.90
2023-08-25T00:58:31.987Z,19.90
2023-08-25T01:01:02.411Z,19.90
2023-08-25T01:03:29.709Z,19.90
2023-08-25T01:05:57.256Z,19.90
2023-08-25T01:08:24.199Z,19.90
2023-08-25T01:11:04.491Z,19.90
2023-08-25T01:13:54.467Z,19.80
2023-08-25T01:16:27.238Z,19.80
2023-08-25T01:18:55.838Z,19.80
2023-08-25T01:21:23.670Z,19.70
2023-08-25T01:24:16.511Z,19.70
2023-08-25T01:26:43.595Z,19.70
2023-08-25T01:29:11.011Z,19.70
2023-08-25T01:31:38.074Z,19.60
2023-08-25T01:34:07.511Z,19.70
2023-08-25T01:37:01.268Z,19.60
2023-08-25T01:39:30.929Z,19.70
2023-08-25T01:42:03.168Z,19.70
2023-08-25T01:44:31.823Z,19.70
2023-08-25T01:47:06.366Z,19.70
2023-08-25T01:49:33.760Z,19.70
2023-08-25T01:57:21.959Z,19.80
2023-08-25T01:59:48.961Z,19.80
2023-08-25T02:02:15.838Z,19.90
2023-08-25T02:04:42.694Z,19.80
2023-08-25T02:07:09.785Z,19.90
2023-08-25T02:09:36.659Z,19.90
2023-08-25T02:12:03.688Z,20.00
2023-08-25T02:14:30.592Z,20.00
2023-08-25T02:16:57.840Z,20.00
2023-08-25T02:19:24.857Z,20.10
2023-08-25T02:21:51.729Z,20.10
2023-08-25T02:24:18.582Z,20.10
2023-08-25T02:26:45.484Z,20.10
2023-08-25T02:29:12.413Z,20.20
2023-08-25T02:31:39.324Z,20.20
2023-08-25T02:34:06.631Z,20.20
2023-08-25T02:36:33.542Z,20.20
2023-08-25T02:39:00.456Z,20.20
2023-08-25T02:41:27.286Z,20.20
2023-08-25T02:43:54.424Z,20.20
2023-08-25T02:46:21.924Z,20.30
2023-08-25T02:48:48.876Z,20.30
2023-08-25T02:51:16.286Z,20.30
2023-08-25T02:53:57.783Z,20.30
2023-08-25T02:56:24.671Z,20.30
2023-08-25T02:58:51.657Z,20.20
2023-08-25T03:01:18.590Z,20.20
2023-08-25T03:03:45.696Z,20.30
2023-08-25T03:06:12.680Z,20.20
2023-08-25T03:08:39.645Z,20.20
2023-08-25T03:11:06.518Z,20.30
2023-08-25T03:13:34.369Z,20.30
2023-08-25T03:16:03.183Z,20.30
2023-08-25T03:18:30.454Z,20.30
2023-08-25T03:20:57.472Z,20.30
2023-08-25T03:23:24.418Z,20.30
2023-08-25T03:25:51.493Z,20.30
2023-08-25T03:28:18.533Z,20.30
2023-08-25T03:30:45.495Z,20.30
2023-08-25T03:33:12.383Z,20.30
2023-08-25T03:35:39.706Z,20.30
2023-08-25T03:38:06.619Z,20.30
2023-08-25T03:40:33.738Z,20.30
2023-08-25T03:43:00.879Z,20.30
2023-08-25T03:45:27.813Z,20.30
2023-08-25T03:47:55.347Z,20.30
2023-08-25T03:50:23.064Z,20.30
2023-08-25T03:52:51.216Z,20.30
2023-08-25T03:55:18.272Z,20.30
2023-08-25T03:57:45.203Z,20.30
2023-08-25T04:00:12.657Z,20.30
2023-08-25T04:02:41.404Z,20.30
2023-08-25T04:05:09.141Z,20.30
2023-08-25T04:07:36.124Z,20.30
2023-08-25T04:10:04.547Z,20.30
2023-08-25T04:12:31.583Z,20.30
2023-08-25T04:41:38.124Z,20.30
2023-08-25T04:44:05.336Z,20.30
2023-08-25T04:46:32.953Z,20.30
2023-08-25T04:48:59.794Z,20.30
2023-08-25T04:51:26.629Z,20.30
2023-08-25T04:53:53.412Z,20.30
2023-08-25T04:56:20.300Z,20.30
2023-08-25T04:58:47.277Z,20.40
2023-08-25T05:01:15.155Z,20.40
2023-08-25T05:03:43.828Z,20.40
2023-08-25T05:06:10.716Z,20.40
2023-08-25T05:08:37.593Z,20.40
2023-08-25T05:22:01.108Z,20.50
2023-08-25T05:24:28.554Z,20.50
2023-08-25T05:26:55.895Z,20.50
2023-08-25T05:29:27.405Z,20.50
2023-08-25T05:31:55.429Z,20.50
2023-08-25T05:34:22.398Z,20.50
2023-08-25T05:36:49.213Z,20.60
2023-08-25T05:39:19.434Z,20.60
2023-08-25T05:41:46.491Z,20.60
2023-08-25T05:44:13.451Z,20.70
2023-08-25T05:46:41.332Z,20.70
2023-08-25T05:49:11.034Z,20.70
2023-08-25T05:51:37.862Z,20.70
2023-08-25T05:54:05.341Z,20.70
2023-08-25T05:56:32.392Z,20.80
2023-08-25T05:59:02.075Z,20.80
2023-08-25T06:01:32.826Z,20.80
2023-08-25T06:04:00.840Z,20.80
2023-08-25T06:06:27.962Z,20.90
2023-08-25T06:08:55.625Z,20.90
2023-08-25T06:11:23.696Z,21.00
2023-08-25T06:13:50.713Z,21.00
2023-08-25T06:21:43.309Z,21.20
2023-08-25T06:24:11.424Z,21.30
2023-08-25T06:54:09.091Z,21.50
2023-08-25T06:56:36.112Z,21.50
2023-08-25T06:59:03.062Z,21.50
2023-08-25T07:01:30.415Z,21.50
2023-08-25T07:03:57.408Z,21.50
2023-08-25T07:06:24.642Z,21.60
2023-08-25T07:08:52.936Z,21.70
2023-08-25T07:11:19.928Z,21.90
2023-08-25T07:13:46.833Z,22.10
2023-08-25T07:51:52.973Z,23.30
2023-08-25T07:54:19.880Z,23.30
2023-08-25T07:56:46.846Z,23.20
2023-08-25T08:12:17.760Z,23.30
2023-08-25T08:36:45.751Z,26.20
2023-08-25T08:39:13.494Z,25.80
2023-08-25T08:41:42.155Z,25.50
2023-08-25T08:49:24.492Z,24.80
2023-08-25T08:51:52.698Z,24.60
2023-08-25T08:54:23.125Z,24.40
2023-08-25T08:56:52.816Z,24.20
2023-08-25T08:59:19.692Z,24.20
2023-08-25T09:01:47.021Z,24.10
2023-08-25T09:04:14.909Z,24.20
2023-08-25T09:06:44.724Z,24.30
2023-08-25T09:31:31.032Z,24.00
2023-08-25T09:34:03.120Z,23.90
2023-08-25T09:36:33.978Z,23.80
2023-08-25T09:41:47.708Z,23.60
2023-08-25T09:44:15.332Z,23.60
2023-08-25T09:46:42.501Z,23.60
2023-08-25T09:49:14.562Z,23.70
2023-08-25T09:51:46.546Z,23.80
2023-08-25T09:54:16.877Z,23.90
2023-08-25T09:56:48.546Z,23.90
2023-08-25T09:59:16.713Z,23.90
2023-08-25T10:01:46.038Z,23.90
2023-08-25T10:04:14.524Z,23.90
2023-08-25T10:06:42.158Z,24.00
2023-08-25T10:09:10.091Z,24.20
2023-08-25T10:11:41.800Z,24.20
2023-08-25T10:14:13.627Z,24.20
2023-08-25T10:16:53.054Z,24.10
2023-08-25T10:19:31.240Z,24.00
2023-08-25T10:21:59.488Z,24.00
2023-08-25T10:32:55.793Z,24.00
2023-08-25T10:35:47.621Z,24.00
2023-08-25T10:38:20.941Z,24.30
2023-08-25T10:40:53.996Z,25.00
2023-08-25T10:43:34.962Z,25.50
2023-08-25T10:46:03.192Z,26.30
2023-08-25T10:48:37.077Z,26.50
2023-08-25T10:51:13.088Z,26.40
2023-08-25T10:53:47.967Z,26.10
2023-08-25T10:56:22.860Z,25.90
2023-08-25T10:59:10.468Z,26.10
2023-08-25T11:01:41.234Z,26.80
2023-08-25T11:06:59.292Z,28.00
2023-08-25T11:09:27.170Z,27.70
2023-08-25T11:14:43.454Z,27.40
2023-08-25T11:17:10.920Z,26.90
2023-08-25T11:27:40.556Z,26.00
2023-08-25T11:30:11.197Z,25.90
2023-08-25T11:32:38.409Z,25.80
2023-08-25T11:35:05.750Z,25.80
2023-08-25T11:37:32.850Z,26.10
2023-08-25T11:40:02.209Z,26.20
2023-08-25T11:45:17.410Z,26.10
2023-08-25T11:47:44.532Z,25.70
2023-08-25T11:50:11.710Z,25.50
2023-08-25T11:52:38.764Z,25.50
2023-08-25T11:55:06.043Z,25.70
2023-08-25T11:57:37.098Z,25.80
2023-08-25T12:00:04.977Z,25.60
2023-08-25T12:02:32.292Z,25.40
2023-08-25T12:05:04.185Z,25.30
2023-08-25T12:07:32.903Z,25.20
2023-08-25T12:10:01.935Z,25.30
2023-08-25T12:12:39.354Z,25.70
2023-08-25T12:15:10.303Z,27.00
2023-08-25T12:17:38.872Z,28.80
2023-08-25T12:20:17.141Z,30.40
2023-08-25T12:22:51.094Z,31.50
2023-08-25T12:25:18.538Z,32.30
2023-08-25T12:27:45.529Z,32.90
2023-08-25T12:30:13.018Z,33.20
2023-08-25T12:32:39.972Z,32.60
2023-08-25T12:35:07.259Z,31.80
2023-08-25T12:37:34.228Z,31.10
2023-08-25T12:40:01.243Z,30.50
2023-08-25T12:42:28.126Z,30.30
2023-08-25T12:44:55.001Z,29.90
2023-08-25T12:47:21.885Z,29.40
2023-08-25T12:49:48.751Z,28.90
2023-08-25T12:52:17.956Z,28.50
2023-08-25T12:54:45.297Z,28.10
2023-08-25T12:57:12.318Z,27.70
2023-08-25T13:05:13.013Z,28.00
2023-08-25T13:07:40.744Z,27.60
2023-08-25T13:15:30.563Z,26.70
2023-08-25T13:17:58.966Z,26.40
2023-08-25T13:20:26.128Z,26.20
2023-08-25T13:22:53.056Z,26.00
2023-08-25T13:25:20.269Z,25.90
2023-08-25T13:27:47.207Z,25.90
2023-08-25T13:30:14.245Z,25.90
2023-08-25T13:32:41.841Z,25.80
2023-08-25T13:35:09.438Z,25.70
2023-08-25T13:37:36.420Z,25.60
2023-08-25T13:40:12.869Z,25.60
2023-08-25T13:42:39.991Z,25.70
2023-08-25T13:59:18.843Z,25.40
2023-08-25T14:01:45.964Z,25.30
2023-08-25T14:04:12.873Z,25.20
2023-08-25T14:06:40.436Z,25.20
2023-08-25T14:09:07.342Z,25.30
2023-08-25T14:11:34.385Z,25.30
2023-08-25T14:14:03.806Z,25.20
2023-08-25T14:16:43.368Z,25.10
2023-08-25T14:19:10.313Z,25.10
2023-08-25T14:21:37.708Z,25.30
2023-08-25T14:40:36.617Z,24.60
2023-08-25T14:43:03.733Z,24.40
2023-08-25T14:48:28.211Z,24.40
2023-08-25T14:50:59.741Z,24.30
2023-08-25T14:53:29.851Z,24.30
2023-08-25T14:55:57.132Z,24.20
2023-08-25T14:58:24.440Z,24.10
2023-08-25T15:01:21.930Z,23.90
2023-08-25T15:03:48.907Z,23.90
2023-08-25T15:06:19.021Z,23.90
2023-08-25T15:08:49.418Z,23.80
2023-08-25T15:11:19.429Z,23.80
2023-08-25T15:13:46.629Z,23.80
2023-08-25T15:16:13.797Z,23.80
2023-08-25T15:18:41.203Z,23.80
2023-08-25T15:21:08.628Z,23.90
2023-08-25T15:23:35.692Z,24.00
2023-08-25T15:26:06.403Z,24.10
2023-08-25T15:28:34.000Z,24.40
2023-08-25T15:31:02.634Z,24.70
2023-08-25T15:33:30.104Z,25.00
2023-08-25T15:35:57.488Z,25.20
2023-08-25T15:38:27.488Z,25.30
2023-08-25T15:40:54.660Z,25.40
2023-08-25T15:43:23.226Z,25.40
2023-08-25T15:45:58.505Z,25.40
2023-08-25T15:48:31.675Z,25.30
2023-08-25T15:51:02.670Z,25.10
2023-08-25T15:53:29.791Z,24.90
2023-08-25T15:56:00.111Z,24.70
2023-08-25T15:58:30.580Z,24.60
2023-08-25T16:01:00.687Z,24.70
2023-08-25T16:03:28.655Z,24.80
2023-08-25T16:16:42.597Z,24.80
2023-08-25T16:19:09.513Z,24.80
2023-08-25T16:21:38.319Z,24.60
2023-08-25T16:24:05.891Z,24.50
2023-08-25T16:26:32.892Z,24.50
2023-08-25T16:29:00.110Z,24.50
2023-08-25T16:31:27.026Z,24.40
2023-08-25T16:33:53.981Z,24.20
2023-08-25T16:36:20.906Z,24.20
2023-08-25T16:38:47.805Z,24.00
2023-08-25T16:41:14.844Z,23.90
2023-08-25T16:43:41.851Z,23.70
2023-08-25T16:46:08.951Z,23.70
2023-08-25T16:48:43.259Z,23.70
2023-08-25T16:51:19.690Z,23.60
2023-08-25T16:53:49.215Z,23.50
2023-08-25T16:56:19.417Z,23.50
2023-08-25T16:58:49.167Z,23.50
2023-08-25T17:01:18.670Z,23.40
2023-08-25T17:03:46.035Z,23.40
2023-08-25T17:06:13.582Z,23.30
2023-08-25T17:38:24.344Z,22.70
2023-08-25T17:41:04.224Z,22.70
2023-08-25T17:43:34.795Z,22.60
2023-08-25T17:48:50.159Z,22.40
2023-08-25T17:51:17.517Z,22.40
2023-08-25T17:53:45.960Z,22.30
2023-08-25T18:04:29.210Z,22.20
2023-08-25T18:12:12.679Z,22.00
2023-08-25T18:14:39.524Z,21.90
2023-08-25T18:17:06.480Z,21.80
2023-08-25T18:19:34.738Z,21.70
2023-08-25T18:22:01.902Z,21.70
2023-08-25T18:24:32.383Z,21.60
2023-08-25T18:27:00.235Z,21.50
2023-08-25T18:29:32.380Z,21.40
2023-08-25T18:32:02.649Z,21.40
2023-08-25T18:34:32.701Z,21.40
2023-08-25T18:37:04.612Z,21.30
2023-08-25T18:39:36.538Z,21.20
2023-08-25T18:42:06.780Z,21.20
2023-08-25T18:44:34.858Z,21.20
2023-08-25T18:47:07.712Z,21.20
2023-08-25T18:49:34.802Z,21.10
2023-08-25T18:52:02.956Z,21.10
2023-08-25T18:59:59.004Z,20.90
2023-08-25T19:02:25.887Z,20.90
2023-08-25T19:04:53.340Z,20.90
2023-08-25T19:07:20.221Z,20.80
2023-08-25T19:09:50.870Z,20.70
2023-08-25T19:15:06.114Z,20.70
2023-08-25T19:17:33.137Z,20.70
2023-08-25T19:20:00.477Z,20.60
2023-08-25T19:22:27.547Z,20.60
2023-08-25T19:24:54.997Z,20.60
2023-08-25T19:27:23.187Z,20.50
2023-08-25T19:29:53.582Z,20.50
2023-08-25T19:32:32.931Z,20.50
2023-08-25T19:35:11.687Z,20.40
2023-08-25T19:37:43.391Z,20.40
2023-08-25T19:40:24.530Z,20.20
2023-08-25T19:45:37.270Z,20.00
2023-08-25T19:48:04.918Z,19.90
2023-08-25T19:50:32.025Z,19.80
2023-08-25T19:53:00.461Z,19.80
2023-08-25T19:55:30.227Z,19.80
2023-08-25T19:57:57.433Z,19.70
2023-08-25T20:00:26.314Z,19.70
2023-08-25T20:02:54.132Z,19.70
2023-08-25T20:05:22.822Z,19.70
2023-08-25T20:07:49.757Z,19.80
2023-08-25T20:10:16.982Z,19.80
2023-08-25T20:12:43.852Z,19.80
2023-08-25T20:15:12.912Z,19.80
2023-08-25T20:17:40.346Z,19.80
2023-08-25T20:28:30.895Z,19.70
2023-08-25T20:30:58.118Z,19.70
2023-08-25T20:33:25.263Z,19.60
2023-08-25T20:35:53.381Z,19.60
2023-08-25T20:38:20.310Z,19.60
2023-08-25T20:40:48.212Z,19.60
2023-08-25T20:43:16.656Z,19.60
2023-08-25T20:45:48.227Z,19.50
2023-08-25T20:48:16.828Z,19.50
2023-08-25T20:50:50.499Z,19.50
2023-08-25T20:53:19.336Z,19.50
2023-08-25T20:55:46.562Z,19.50
2023-08-25T20:58:13.820Z,19.50
2023-08-25T21:00:40.764Z,19.50
2023-08-25T21:03:07.818Z,19.40
2023-08-25T21:05:35.133Z,19.40
2023-08-25T21:08:02.247Z,19.30
2023-08-25T21:10:36.318Z,19.20
2023-08-25T21:13:05.638Z,19.20
2023-08-25T21:15:32.487Z,19.20
2023-08-25T21:17:59.575Z,19.10
2023-08-25T21:20:27.364Z,19.10
2023-08-25T21:22:54.665Z,19.10
2023-08-25T21:25:21.783Z,19.00
2023-08-25T21:27:48.823Z,19.00
2023-08-25T21:30:15.902Z,18.90
2023-08-25T21:32:42.857Z,18.90
2023-08-25T21:35:09.925Z,18.80
2023-08-25T21:37:36.770Z,18.70
2023-08-25T21:40:04.184Z,18.70
2023-08-25T21:42:31.232Z,18.60
2023-08-25T21:44:58.284Z,18.50
2023-08-25T21:47:25.451Z,18.30
2023-08-25T21:49:52.365Z,18.20
2023-08-25T21:52:19.335Z,18.20
2023-08-25T21:54:46.281Z,18.00
2023-08-25T21:57:13.212Z,18.00
2023-08-25T22:07:49.402Z,17.70
2023-08-25T22:10:16.409Z,17.70
2023-08-25T22:12:45.032Z,17.70
2023-08-25T22:17:54.827Z,17.60
2023-08-25T22:20:21.660Z,17.70
2023-08-25T22:22:48.832Z,17.70
2023-08-25T22:25:16.272Z,17.70
2023-08-25T22:27:43.128Z,17.70
2023-08-25T22:30:10.648Z,17.70
2023-08-25T22:35:07.620Z,17.60
2023-08-25T22:37:34.530Z,17.50
2023-08-25T22:40:01.675Z,17.40
2023-08-25T22:42:28.748Z,17.40
2023-08-25T22:44:55.620Z,17.40
2023-08-25T22:47:22.413Z,17.30
2023-08-25T22:49:49.281Z,17.30
2023-08-25T22:52:16.197Z,17.30
2023-08-25T22:54:43.095Z,17.20
2023-08-25T22:57:09.987Z,17.10
2023-08-25T22:59:40.094Z,17.10
2023-08-25T23:02:08.123Z,17.00
2023-08-25T23:04:35.199Z,17.00
2023-08-25T23:07:02.243Z,16.90
2023-08-25T23:09:29.141Z,16.90
2023-08-25T23:11:56.011Z,16.90
2023-08-25T23:14:22.890Z,16.80
2023-08-25T23:16:50.056Z,16.80
2023-08-25T23:19:17.058Z,16.80
2023-08-25T23:21:43.958Z,16.70
2023-08-25T23:24:10.961Z,16.70
2023-08-25T23:26:37.936Z,16.70
2023-08-25T23:29:04.954Z,16.60
2023-08-25T23:31:31.919Z,16.50
2023-08-25T23:33:58.809Z,16.50
2023-08-25T23:36:26.180Z,16.50
2023-08-25T23:38:53.098Z,16.50
2023-08-25T23:41:20.002Z,16.50
2023-08-25T23:43:46.979Z,16.40
2023-08-25T23:46:13.998Z,16.40
2023-08-25T23:48:41.254Z,16.30
2023-08-25T23:51:08.391Z,16.30
2023-08-25T23:53:35.606Z,16.30
2023-08-25T23:56:02.511Z,16.20
2023-08-25T23:58:29.767Z,16.20
